createdAt,value
2023-11-23T00:01:56.549Z,11.25
2023-11-23T00:03:58.389Z,12.75
2023-11-23T00:06:00.371Z,11.10
2023-11-23T00:08:03.635Z,10.27
2023-11-23T00:10:06.759Z,10.60
2023-11-23T00:12:08.892Z,10.93
2023-11-23T00:14:10.605Z,10.95
2023-11-23T00:16:12.480Z,10.88
2023-11-23T00:18:14.312Z,11.60
2023-11-23T00:20:16.090Z,10.05
2023-11-23T00:22:17.747Z,11.02
2023-11-23T00:24:20.830Z,11.60
2023-11-23T00:26:22.629Z,9.98
2023-11-23T00:28:24.380Z,10.70
2023-11-23T00:30:26.190Z,11.25
2023-11-23T00:32:28.008Z,12.00
2023-11-23T00:34:29.729Z,11.90
2023-11-23T00:36:31.612Z,11.52
2023-11-23T00:38:33.548Z,12.18
2023-11-23T00:40:36.866Z,12.50
2023-11-23T00:42:38.973Z,11.77
2023-11-23T00:44:40.754Z,11.07
2023-11-23T00:46:42.547Z,12.00
2023-11-23T00:48:44.542Z,11.40
2023-11-23T00:50:46.285Z,12.20
2023-11-23T00:52:48.065Z,12.30
2023-11-23T00:54:49.850Z,12.52
2023-11-23T00:56:53.125Z,11.80
2023-11-23T00:58:54.870Z,12.13
2023-11-23T01:00:56.755Z,11.98
2023-11-23T01:02:58.619Z,12.05
2023-11-23T01:05:00.412Z,12.40
2023-11-23T01:07:02.279Z,11.90
2023-11-23T01:09:04.148Z,12.02
2023-11-23T01:11:06.305Z,12.25
2023-11-23T01:13:09.470Z,12.27
2023-11-23T01:15:11.786Z,12.73
2023-11-23T01:17:15.117Z,11.00
2023-11-23T01:19:17.026Z,10.95
2023-11-23T01:21:18.710Z,11.55
2023-11-23T01:23:20.582Z,12.82
2023-11-23T01:25:22.471Z,11.90
2023-11-23T01:27:24.161Z,12.25
2023-11-23T01:29:27.180Z,11.95
2023-11-23T01:31:28.864Z,11.90
2023-11-23T01:33:30.622Z,11.43
2023-11-23T01:35:32.325Z,11.73
2023-11-23T01:37:34.019Z,11.85
2023-11-23T01:39:35.719Z,12.07
2023-11-23T01:41:37.489Z,10.32
2023-11-23T01:43:39.233Z,11.60
2023-11-23T01:45:42.274Z,10.93
2023-11-23T01:47:45.396Z,11.35
2023-11-23T01:49:47.530Z,11.40
2023-11-23T01:51:49.276Z,11.15
2023-11-23T01:53:52.100Z,11.32
2023-11-23T01:55:54.233Z,11.68
2023-11-23T01:57:59.037Z,11.55
2023-11-23T02:00:01.734Z,12.02
2023-11-23T02:02:06.585Z,11.00
2023-11-23T02:04:09.226Z,10.82
2023-11-23T02:06:10.920Z,10.95
2023-11-23T02:08:12.692Z,11.00
2023-11-23T02:10:14.431Z,10.85
2023-11-23T02:12:18.404Z,11.07
2023-11-23T02:14:20.109Z,10.45
2023-11-23T02:16:21.894Z,10.35
2023-11-23T02:18:25.070Z,11.20
2023-11-23T02:20:26.707Z,12.00
2023-11-23T02:22:28.360Z,10.57
2023-11-23T02:24:31.428Z,10.63
2023-11-23T02:26:33.238Z,10.95
2023-11-23T02:28:35.001Z,10.07
2023-11-23T02:30:36.719Z,11.15
2023-11-23T02:32:38.550Z,10.35
2023-11-23T02:34:40.229Z,10.95
2023-11-23T02:36:41.909Z,10.85
2023-11-23T02:38:43.704Z,11.45
2023-11-23T02:40:46.754Z,10.85
2023-11-23T02:42:48.528Z,10.05
2023-11-23T02:44:50.322Z,11.35
2023-11-23T02:46:52.352Z,10.80
2023-11-23T02:48:54.043Z,10.60
2023-11-23T02:50:55.827Z,10.45
2023-11-23T02:52:57.534Z,10.20
2023-11-23T02:54:59.263Z,10.38
2023-11-23T02:57:02.380Z,10.07
2023-11-23T02:59:04.379Z,10.50
2023-11-23T03:01:06.353Z,9.88
2023-11-23T03:03:08.117Z,8.95
2023-11-23T03:05:10.061Z,8.57
2023-11-23T03:07:14.388Z,10.32
2023-11-23T03:09:16.393Z,9.90
2023-11-23T03:11:18.768Z,8.65
2023-11-23T03:13:22.064Z,10.10
2023-11-23T03:15:23.941Z,8.85
2023-11-23T03:17:27.462Z,9.00
2023-11-23T03:19:29.184Z,9.23
2023-11-23T03:21:31.077Z,8.32
2023-11-23T03:23:32.813Z,8.70
2023-11-23T03:25:34.499Z,8.40
2023-11-23T03:27:36.225Z,9.05
2023-11-23T03:29:39.461Z,8.45
2023-11-23T03:31:41.227Z,8.63
2023-11-23T03:33:43.186Z,9.43
2023-11-23T03:35:44.895Z,8.73
2023-11-23T03:37:46.549Z,8.48
2023-11-23T03:39:48.240Z,7.95
2023-11-23T03:41:49.951Z,8.20
2023-11-23T03:43:51.915Z,8.00
2023-11-23T03:45:55.238Z,9.25
2023-11-23T03:47:57.016Z,10.77
2023-11-23T03:49:58.654Z,9.40
2023-11-23T03:52:00.452Z,10.10
2023-11-23T03:54:02.238Z,8.73
2023-11-23T03:56:04.409Z,9.30
2023-11-23T03:58:06.275Z,9.63
2023-11-23T04:00:09.045Z,8.73
2023-11-23T04:02:12.558Z,9.85
2023-11-23T04:04:15.008Z,8.90
2023-11-23T04:06:16.913Z,8.50
2023-11-23T04:08:18.532Z,9.50
2023-11-23T04:10:20.229Z,9.88
2023-11-23T04:12:21.932Z,9.20
2023-11-23T04:14:23.553Z,10.50
2023-11-23T04:16:25.245Z,10.13
2023-11-23T04:18:28.259Z,8.50
2023-11-23T04:20:33.221Z,9.23
2023-11-23T04:22:35.525Z,9.80
2023-11-23T04:24:38.923Z,9.52
2023-11-23T04:26:41.717Z,8.95
2023-11-23T04:28:43.484Z,8.40
2023-11-23T04:30:45.354Z,8.20
2023-11-23T04:32:47.286Z,9.40
2023-11-23T04:34:50.525Z,9.70
2023-11-23T04:36:52.251Z,8.95
2023-11-23T04:38:54.013Z,9.65
2023-11-23T04:40:55.790Z,10.20
2023-11-23T04:42:57.576Z,8.40
2023-11-23T04:44:59.277Z,9.23
2023-11-23T04:47:00.983Z,9.60
2023-11-23T04:49:02.657Z,8.75
2023-11-23T04:51:07.534Z,8.60
2023-11-23T04:53:09.330Z,9.38
2023-11-23T04:55:11.026Z,9.60
2023-11-23T04:57:12.776Z,9.70
2023-11-23T04:59:14.558Z,9.27
2023-11-23T05:01:16.943Z,9.07
2023-11-23T05:03:18.749Z,9.38
2023-11-23T05:05:20.488Z,9.20
2023-11-23T05:07:23.610Z,8.52
2023-11-23T05:09:25.458Z,9.07
2023-11-23T05:11:27.208Z,8.10
2023-11-23T05:13:28.884Z,10.13
2023-11-23T05:15:30.649Z,9.20
2023-11-23T05:17:33.147Z,9.48
2023-11-23T05:19:41.986Z,9.98
2023-11-23T05:21:44.933Z,7.97
2023-11-23T05:23:48.107Z,8.55
2023-11-23T05:25:49.778Z,9.23
2023-11-23T05:27:51.493Z,8.50
2023-11-23T05:29:53.302Z,8.23
2023-11-23T05:31:55.011Z,8.43
2023-11-23T05:33:56.769Z,8.75
2023-11-23T05:35:58.583Z,8.57
2023-11-23T05:38:00.281Z,8.55
2023-11-23T05:40:03.575Z,8.93
2023-11-23T05:42:05.729Z,8.93
2023-11-23T05:44:07.728Z,8.75
2023-11-23T05:46:11.777Z,9.23
2023-11-23T05:48:14.975Z,9.02
2023-11-23T05:50:17.086Z,9.32
2023-11-23T05:52:18.726Z,8.23
2023-11-23T05:54:20.561Z,9.15
2023-11-23T05:56:23.618Z,8.85
2023-11-23T05:58:25.359Z,9.18
2023-11-23T06:00:27.122Z,8.73
2023-11-23T06:02:28.853Z,9.15
2023-11-23T06:04:30.719Z,8.25
2023-11-23T06:06:32.604Z,9.55
2023-11-23T06:08:34.431Z,9.55
2023-11-23T06:10:36.260Z,9.38
2023-11-23T06:12:39.644Z,9.85
2023-11-23T06:14:41.429Z,7.80
2023-11-23T06:16:43.063Z,9.60
2023-11-23T06:18:45.476Z,9.65
2023-11-23T06:20:47.283Z,8.30
2023-11-23T06:22:49.029Z,8.07
2023-11-23T06:24:50.796Z,8.30
2023-11-23T06:26:52.977Z,8.90
2023-11-23T06:28:56.175Z,8.90
2023-11-23T06:30:57.946Z,9.48
2023-11-23T06:32:59.808Z,8.05
2023-11-23T06:35:01.811Z,9.55
2023-11-23T06:37:04.011Z,8.90
2023-11-23T06:39:05.899Z,9.93
2023-11-23T06:41:17.025Z,9.52
2023-11-23T06:43:19.122Z,9.52
2023-11-23T06:45:22.450Z,9.07
2023-11-23T06:47:24.139Z,10.82
2023-11-23T06:49:25.864Z,10.32
2023-11-23T06:51:27.633Z,9.57
2023-11-23T06:53:29.557Z,10.65
2023-11-23T06:55:31.327Z,10.13
2023-11-23T06:57:33.118Z,10.85
2023-11-23T06:59:34.788Z,9.30
2023-11-23T07:01:37.941Z,8.85
2023-11-23T07:03:40.177Z,9.25
2023-11-23T07:05:42.001Z,9.60
2023-11-23T07:07:43.788Z,10.20
2023-11-23T07:09:45.491Z,9.52
2023-11-23T07:11:47.208Z,9.75
2023-11-23T07:13:49.089Z,8.80
2023-11-23T07:15:51.068Z,10.32
2023-11-23T07:17:54.395Z,9.75
2023-11-23T07:19:56.272Z,9.60
2023-11-23T07:21:57.990Z,9.95
2023-11-23T07:23:59.725Z,9.80
2023-11-23T07:26:01.539Z,9.32
2023-11-23T07:28:03.656Z,10.02
2023-11-23T07:30:07.047Z,10.20
2023-11-23T07:32:09.161Z,11.10
2023-11-23T07:34:12.250Z,11.35
2023-11-23T07:36:14.010Z,10.82
2023-11-23T07:38:16.563Z,10.60
2023-11-23T07:40:20.013Z,9.40
2023-11-23T07:42:21.850Z,10.30
2023-11-23T07:44:23.571Z,10.43
2023-11-23T07:46:25.760Z,9.57
2023-11-23T07:48:27.783Z,10.00
2023-11-23T07:50:31.012Z,9.85
2023-11-23T07:52:32.851Z,10.07
2023-11-23T07:54:34.698Z,11.25
2023-11-23T07:56:36.590Z,9.50
2023-11-23T07:58:38.614Z,11.30
2023-11-23T08:00:40.418Z,11.10
2023-11-23T08:02:42.381Z,11.57
2023-11-23T08:04:44.030Z,10.07
2023-11-23T08:06:48.376Z,9.18
2023-11-23T08:08:50.338Z,9.77
2023-11-23T08:10:52.196Z,9.40
2023-11-23T08:12:54.097Z,10.48
2023-11-23T08:14:56.018Z,9.85
2023-11-23T08:16:58.000Z,10.30
2023-11-23T08:19:00.342Z,9.25
2023-11-23T08:21:02.289Z,10.23
2023-11-23T08:23:05.625Z,10.88
2023-11-23T08:25:08.225Z,11.30
2023-11-23T08:27:09.969Z,9.82
2023-11-23T08:29:11.807Z,10.48
2023-11-23T08:31:13.878Z,10.75
2023-11-23T08:33:15.993Z,10.45
2023-11-23T08:35:17.871Z,9.27
2023-11-23T08:37:19.863Z,9.77
2023-11-23T08:39:23.347Z,10.32
2023-11-23T08:41:25.620Z,10.43
2023-11-23T08:43:27.675Z,9.70
2023-11-23T08:45:29.592Z,8.85
2023-11-23T08:47:31.812Z,9.13
2023-11-23T08:49:33.609Z,10.13
2023-11-23T08:51:35.797Z,9.63
2023-11-23T08:53:37.774Z,9.13
2023-11-23T08:55:40.920Z,9.95
2023-11-23T08:57:42.946Z,9.63
2023-11-23T08:59:44.904Z,10.02
2023-11-23T09:01:50.957Z,9.50
2023-11-23T09:03:57.060Z,9.50
2023-11-23T09:05:59.200Z,9.05
2023-11-23T09:08:01.012Z,9.55
2023-11-23T09:10:02.934Z,10.50
2023-11-23T09:12:07.243Z,9.60
2023-11-23T09:14:09.102Z,10.43
2023-11-23T09:16:11.212Z,9.60
2023-11-23T09:18:13.243Z,9.82
2023-11-23T09:20:15.129Z,8.35
2023-11-23T09:22:17.328Z,9.10
2023-11-23T09:24:19.337Z,8.25
2023-11-23T09:26:21.494Z,8.55
2023-11-23T09:28:25.348Z,9.18
2023-11-23T09:30:27.181Z,7.95
2023-11-23T09:32:29.010Z,7.28
2023-11-23T09:34:30.951Z,8.55
2023-11-23T09:36:32.849Z,8.93
2023-11-23T09:38:34.642Z,8.50
2023-11-23T09:40:36.542Z,8.35
2023-11-23T09:42:38.708Z,8.15
2023-11-23T09:44:43.902Z,7.05
2023-11-23T09:46:47.697Z,7.57
2023-11-23T09:48:50.828Z,7.10
2023-11-23T09:50:52.940Z,6.32
2023-11-23T09:52:54.973Z,7.82
2023-11-23T09:54:58.367Z,8.50
2023-11-23T09:57:02.155Z,7.05
2023-11-23T09:59:04.472Z,6.70
2023-11-23T10:01:08.423Z,7.20
2023-11-23T10:03:13.722Z,7.55
2023-11-23T10:05:17.582Z,7.43
2023-11-23T10:07:20.239Z,7.60
2023-11-23T10:09:22.202Z,6.95
2023-11-23T10:11:27.353Z,6.95
2023-11-23T10:13:29.228Z,7.47
2023-11-23T10:15:31.185Z,7.28
2023-11-23T10:17:34.712Z,6.50
2023-11-23T10:19:36.658Z,5.88
2023-11-23T10:21:41.110Z,7.50
2023-11-23T10:23:43.388Z,6.70
2023-11-23T10:25:46.615Z,7.53
2023-11-23T10:27:48.732Z,8.15
2023-11-23T10:29:51.037Z,6.50
2023-11-23T10:31:53.347Z,7.53
2023-11-23T10:33:57.002Z,6.95
2023-11-23T10:36:03.335Z,8.35
2023-11-23T10:38:06.973Z,8.07
2023-11-23T10:40:13.186Z,7.15
2023-11-23T10:42:17.638Z,6.40
2023-11-23T10:44:20.320Z,8.10
2023-11-23T10:46:23.648Z,8.48
2023-11-23T10:48:25.963Z,8.13
2023-11-23T10:50:29.758Z,7.75
2023-11-23T10:52:34.170Z,7.30
2023-11-23T10:54:36.362Z,7.68
2023-11-23T10:56:43.164Z,7.88
2023-11-23T10:58:50.173Z,7.43
2023-11-23T11:00:53.321Z,7.43
2023-11-23T11:03:01.453Z,7.68
2023-11-23T11:05:03.896Z,7.15
2023-11-23T11:07:09.604Z,6.93
2023-11-23T11:09:16.038Z,7.78
2023-11-23T11:11:20.673Z,7.60
2023-11-23T11:13:25.739Z,7.45
2023-11-23T11:15:28.927Z,8.10
2023-11-23T11:17:37.797Z,6.80
2023-11-23T11:19:43.384Z,7.72
2023-11-23T11:21:46.705Z,7.70
2023-11-23T11:23:51.214Z,7.97
2023-11-23T11:25:53.254Z,6.63
2023-11-23T11:27:55.253Z,7.10
2023-11-23T11:29:59.633Z,8.02
2023-11-23T11:32:04.118Z,6.97
2023-11-23T11:34:17.560Z,7.40
2023-11-23T11:36:19.900Z,7.25
2023-11-23T11:38:21.865Z,7.68
2023-11-23T11:40:25.985Z,7.40
2023-11-23T11:42:27.886Z,6.80
2023-11-23T11:44:30.131Z,7.75
2023-11-23T11:46:32.584Z,7.13
2023-11-23T11:48:34.431Z,8.88
2023-11-23T11:50:36.319Z,7.60
2023-11-23T11:52:38.404Z,7.93
2023-11-23T11:54:40.689Z,7.30
2023-11-23T11:56:44.165Z,7.03
2023-11-23T11:58:46.659Z,7.35
2023-11-23T12:00:48.563Z,7.35
2023-11-23T12:02:50.931Z,7.28
2023-11-23T12:04:58.265Z,8.52
2023-11-23T12:07:00.158Z,6.72
2023-11-23T12:09:02.178Z,7.18
2023-11-23T12:11:05.430Z,7.70
2023-11-23T12:13:09.225Z,7.40
2023-11-23T12:15:14.651Z,7.32
2023-11-23T12:17:16.413Z,6.10
2023-11-23T12:19:19.348Z,7.43
2023-11-23T12:21:21.381Z,6.53
2023-11-23T12:23:23.315Z,7.28
2023-11-23T12:25:25.314Z,7.97
2023-11-23T12:27:27.222Z,7.13
2023-11-23T12:29:30.641Z,7.05
2023-11-23T12:31:32.694Z,6.10
2023-11-23T12:33:34.874Z,7.25
2023-11-23T12:35:36.602Z,6.47
2023-11-23T12:37:38.623Z,6.72
2023-11-23T12:39:40.482Z,6.95
2023-11-23T12:41:46.730Z,7.15
2023-11-23T12:43:54.516Z,7.68
2023-11-23T12:45:58.080Z,6.68
2023-11-23T12:48:00.835Z,6.38
2023-11-23T12:50:03.089Z,6.82
2023-11-23T12:52:05.792Z,6.50
2023-11-23T12:54:08.089Z,6.20
2023-11-23T12:56:09.863Z,7.20
2023-11-23T12:58:12.074Z,6.90
2023-11-23T13:00:14.617Z,7.25
2023-11-23T13:02:18.058Z,7.03
2023-11-23T13:04:19.844Z,6.55
2023-11-23T13:06:21.922Z,8.00
2023-11-23T13:08:24.154Z,7.72
2023-11-23T13:10:26.792Z,7.07
2023-11-23T13:12:28.940Z,7.30
2023-11-23T13:14:31.048Z,6.70
2023-11-23T13:16:32.971Z,7.10
2023-11-23T13:18:51.101Z,7.43
2023-11-23T13:20:58.304Z,7.05
2023-11-23T13:23:00.221Z,6.75
2023-11-23T13:25:02.180Z,7.00
2023-11-23T13:27:04.816Z,6.60
2023-11-23T13:29:07.168Z,7.18
2023-11-23T13:31:09.252Z,7.28
2023-11-23T13:33:11.178Z,7.72
2023-11-23T13:35:14.754Z,7.85
2023-11-23T13:37:16.754Z,6.70
2023-11-23T13:39:18.504Z,7.30
2023-11-23T13:41:20.308Z,7.20
2023-11-23T13:43:22.347Z,6.10
2023-11-23T13:45:24.369Z,6.20
2023-11-23T13:47:26.264Z,6.18
2023-11-23T13:49:28.078Z,6.10
2023-11-23T13:51:32.347Z,7.10
2023-11-23T13:53:36.006Z,7.30
2023-11-23T13:55:37.885Z,6.50
2023-11-23T13:57:40.181Z,5.75
2023-11-23T13:59:42.089Z,6.68
2023-11-23T14:01:44.080Z,6.10
2023-11-23T14:03:46.019Z,6.38
2023-11-23T14:05:48.208Z,6.15
2023-11-23T14:07:51.541Z,6.38
2023-11-23T14:09:53.425Z,6.43
2023-11-23T14:11:55.666Z,6.13
2023-11-23T14:13:57.625Z,6.00
2023-11-23T14:15:59.695Z,6.97
2023-11-23T14:18:02.168Z,5.15
2023-11-23T14:20:04.698Z,6.20
2023-11-23T14:22:06.430Z,5.90
2023-11-23T14:24:10.455Z,5.85
2023-11-23T14:26:12.417Z,5.13
2023-11-23T14:28:14.380Z,6.60
2023-11-23T14:30:16.669Z,6.80
2023-11-23T14:32:18.595Z,6.15
2023-11-23T14:34:20.806Z,6.53
2023-11-23T14:36:22.778Z,6.38
2023-11-23T14:38:24.695Z,5.38
2023-11-23T14:40:27.923Z,6.82
2023-11-23T14:42:36.162Z,6.25
2023-11-23T14:44:43.405Z,6.20
2023-11-23T14:46:45.428Z,7.22
2023-11-23T14:48:47.236Z,5.93
2023-11-23T14:50:49.132Z,6.80
2023-11-23T14:52:50.966Z,6.20
2023-11-23T14:54:53.212Z,6.60
2023-11-23T14:56:56.467Z,7.93
2023-11-23T14:58:58.629Z,7.55
2023-11-23T15:01:00.626Z,7.88
2023-11-23T15:03:02.725Z,8.02
2023-11-23T15:05:05.829Z,8.15
2023-11-23T15:07:07.755Z,6.63
2023-11-23T15:09:09.697Z,6.85
2023-11-23T15:11:13.466Z,7.47
2023-11-23T15:13:23.155Z,7.60
2023-11-23T15:15:34.299Z,6.15
2023-11-23T15:17:38.135Z,7.18
2023-11-23T15:19:39.941Z,7.55
2023-11-23T15:21:42.089Z,7.93
2023-11-23T15:23:43.923Z,6.53
2023-11-23T15:25:46.067Z,7.03
2023-11-23T15:27:47.986Z,6.95
2023-11-23T15:29:51.412Z,7.15
2023-11-23T15:31:53.361Z,7.82
2023-11-23T15:33:55.216Z,7.90
2023-11-23T15:35:57.973Z,8.00
2023-11-23T15:38:00.131Z,7.80
2023-11-23T15:40:02.472Z,8.55
2023-11-23T15:42:05.349Z,7.10
2023-11-23T15:44:07.472Z,7.22
2023-11-23T15:46:10.967Z,6.93
2023-11-23T15:48:13.004Z,7.55
2023-11-23T15:50:15.142Z,8.20
2023-11-23T15:52:16.982Z,8.32
2023-11-23T15:54:18.893Z,8.15
2023-11-23T15:56:23.325Z,6.60
2023-11-23T15:58:26.457Z,7.05
2023-11-23T16:00:28.236Z,8.07
2023-11-23T16:02:37.602Z,7.70
2023-11-23T16:04:39.569Z,8.15
2023-11-23T16:06:41.579Z,7.50
2023-11-23T16:08:43.583Z,7.55
2023-11-23T16:10:45.441Z,7.78
2023-11-23T16:12:47.471Z,7.70
2023-11-23T16:14:49.235Z,8.13
2023-11-23T16:16:51.120Z,8.20
2023-11-23T16:18:54.249Z,8.70
2023-11-23T16:20:58.666Z,8.95
2023-11-23T16:23:00.549Z,8.40
2023-11-23T16:25:02.300Z,8.00
2023-11-23T16:27:04.579Z,7.80
2023-11-23T16:29:06.292Z,7.80
2023-11-23T16:31:08.565Z,8.95
2023-11-23T16:33:10.609Z,8.18
2023-11-23T16:35:13.897Z,9.32
2023-11-23T16:37:15.637Z,8.77
2023-11-23T16:39:17.446Z,9.05
2023-11-23T16:41:19.653Z,8.45
2023-11-23T16:43:21.396Z,9.15
2023-11-23T16:45:23.643Z,8.95
2023-11-23T16:47:25.685Z,8.43
2023-11-23T16:49:27.786Z,8.45
2023-11-23T16:51:31.044Z,9.50
2023-11-23T16:53:33.096Z,10.30
2023-11-23T16:55:36.331Z,9.38
2023-11-23T16:57:38.687Z,8.80
2023-11-23T16:59:40.437Z,8.93
2023-11-23T17:01:42.232Z,9.10
2023-11-23T17:03:44.087Z,9.07
2023-11-23T17:05:45.907Z,9.45
2023-11-23T17:07:49.016Z,8.40
2023-11-23T17:09:51.182Z,9.48
2023-11-23T17:11:53.269Z,9.68
2023-11-23T17:13:55.210Z,9.75
2023-11-23T17:15:57.175Z,9.98
2023-11-23T17:17:58.951Z,9.68
2023-11-23T17:20:00.920Z,9.82
2023-11-23T17:22:02.981Z,9.95
2023-11-23T17:24:07.392Z,9.38
2023-11-23T17:26:09.349Z,10.80
2023-11-23T17:28:11.140Z,10.65
2023-11-23T17:30:13.260Z,9.85
2023-11-23T17:32:15.254Z,11.07
2023-11-23T17:34:17.072Z,10.95
2023-11-23T17:36:18.735Z,11.48
2023-11-23T17:38:20.429Z,13.20
2023-11-23T17:40:23.688Z,12.73
2023-11-23T17:42:25.530Z,11.75
2023-11-23T17:44:27.239Z,10.93
2023-11-23T17:46:29.152Z,10.30
2023-11-23T17:48:30.919Z,10.23
2023-11-23T17:50:32.618Z,9.93
2023-11-23T17:52:34.455Z,10.95
2023-11-23T17:54:36.165Z,10.70
2023-11-23T17:56:39.306Z,10.85
2023-11-23T17:58:41.087Z,11.90
2023-11-23T18:00:42.903Z,10.63
2023-11-23T18:02:45.096Z,11.85
2023-11-23T18:04:47.549Z,10.90
2023-11-23T18:06:49.261Z,9.63
2023-11-23T18:08:51.179Z,10.57
2023-11-23T18:10:53.013Z,11.55
2023-11-23T18:12:56.394Z,10.85
2023-11-23T18:14:58.404Z,14.55
2023-11-23T18:17:00.320Z,17.42
2023-11-23T18:19:02.208Z,23.20
2023-11-23T18:21:04.171Z,43.58
2023-11-23T18:23:05.890Z,26.13
2023-11-23T18:25:08.338Z,16.92
2023-11-23T18:27:10.096Z,16.55
2023-11-23T18:29:13.562Z,15.55
2023-11-23T18:31:15.455Z,13.68
2023-11-23T18:33:17.368Z,11.32
2023-11-23T18:35:19.446Z,10.27
2023-11-23T18:37:21.331Z,11.48
2023-11-23T18:39:23.176Z,9.80
2023-11-23T18:41:25.489Z,11.40
2023-11-23T18:43:27.484Z,9.60
2023-11-23T18:45:30.593Z,10.18
2023-11-23T18:47:33.301Z,10.40
2023-11-23T18:49:35.151Z,10.32
2023-11-23T18:51:37.084Z,9.27
2023-11-23T18:53:39.104Z,9.82
2023-11-23T18:55:40.805Z,8.60
2023-11-23T18:57:42.669Z,10.43
2023-11-23T18:59:45.174Z,9.18
2023-11-23T19:01:48.544Z,9.63
2023-11-23T19:03:51.551Z,8.50
2023-11-23T19:05:53.568Z,8.93
2023-11-23T19:07:55.953Z,8.13
2023-11-23T19:09:58.060Z,8.35
2023-11-23T19:12:00.618Z,9.00
2023-11-23T19:14:02.691Z,9.80
2023-11-23T19:16:05.632Z,9.40
2023-11-23T19:18:11.000Z,8.55
2023-11-23T19:20:14.456Z,10.20
2023-11-23T19:22:16.968Z,8.73
2023-11-23T19:24:19.694Z,8.80
2023-11-23T19:26:22.530Z,9.02
2023-11-23T19:28:25.094Z,9.55
2023-11-23T19:30:28.052Z,9.07
2023-11-23T19:32:30.590Z,8.25
2023-11-23T19:34:35.459Z,8.38
2023-11-23T19:36:40.313Z,9.25
2023-11-23T19:38:45.131Z,8.55
2023-11-23T19:40:48.252Z,9.30
2023-11-23T19:42:50.894Z,8.88
2023-11-23T19:44:53.471Z,8.88
2023-11-23T19:46:55.812Z,8.70
2023-11-23T19:48:58.577Z,8.93
2023-11-23T19:51:03.479Z,8.60
2023-11-23T19:53:05.909Z,9.95
2023-11-23T19:55:08.893Z,9.40
2023-11-23T19:57:10.717Z,8.55
2023-11-23T19:59:12.797Z,8.90
2023-11-23T20:01:14.986Z,8.35
2023-11-23T20:03:19.748Z,9.18
2023-11-23T20:05:21.854Z,7.30
2023-11-23T20:07:25.388Z,8.38
2023-11-23T20:09:27.429Z,8.18
2023-11-23T20:11:29.565Z,9.00
2023-11-23T20:13:32.146Z,10.00
2023-11-23T20:15:34.512Z,8.55
2023-11-23T20:17:36.857Z,8.55
2023-11-23T20:19:40.365Z,10.75
2023-11-23T20:21:42.617Z,9.30
2023-11-23T20:23:46.351Z,9.07
2023-11-23T20:25:48.836Z,10.15
2023-11-23T20:27:51.144Z,9.20
2023-11-23T20:29:53.164Z,9.10
2023-11-23T20:31:55.339Z,8.45
2023-11-23T20:33:57.362Z,9.32
2023-11-23T20:35:59.512Z,8.82
2023-11-23T20:38:01.532Z,7.75
2023-11-23T20:40:06.052Z,9.27
2023-11-23T20:42:08.688Z,9.32
2023-11-23T20:44:10.938Z,10.23
2023-11-23T20:46:13.195Z,8.45
2023-11-23T20:48:15.246Z,8.50
2023-11-23T20:50:18.330Z,9.05
2023-11-23T20:52:21.364Z,8.73
2023-11-23T20:54:23.341Z,7.72
2023-11-23T20:56:27.556Z,8.43
2023-11-23T20:58:30.104Z,8.52
2023-11-23T21:00:32.428Z,8.65
2023-11-23T21:02:35.753Z,9.00
2023-11-23T21:04:38.666Z,8.48
2023-11-23T21:06:50.604Z,9.50
2023-11-23T21:08:58.792Z,8.60
2023-11-23T21:11:01.338Z,8.43
2023-11-23T21:13:04.786Z,9.43
2023-11-23T21:15:08.043Z,9.60
2023-11-23T21:17:10.717Z,8.88
2023-11-23T21:19:12.988Z,9.57
2023-11-23T21:21:15.068Z,10.40
2023-11-23T21:23:16.996Z,10.15
2023-11-23T21:25:18.946Z,10.55
2023-11-23T21:27:21.107Z,9.35
2023-11-23T21:29:24.349Z,9.35
2023-11-23T21:31:26.465Z,8.43
2023-11-23T21:33:28.781Z,8.95
2023-11-23T21:35:30.745Z,8.65
2023-11-23T21:37:32.702Z,7.85
2023-11-23T21:39:34.696Z,7.78
2023-11-23T21:41:36.392Z,9.07
2023-11-23T21:43:38.270Z,9.55
2023-11-23T21:45:41.746Z,8.35
2023-11-23T21:47:43.974Z,9.35
2023-11-23T21:49:46.089Z,9.45
2023-11-23T21:51:48.134Z,8.77
2023-11-23T21:53:50.015Z,8.85
2023-11-23T21:55:52.013Z,8.65
2023-11-23T21:57:53.993Z,9.68
2023-11-23T21:59:55.983Z,10.85
2023-11-23T22:01:59.361Z,8.57
2023-11-23T22:04:01.394Z,8.70
2023-11-23T22:06:03.517Z,8.50
2023-11-23T22:08:05.742Z,7.03
2023-11-23T22:10:08.724Z,7.30
2023-11-23T22:12:10.563Z,8.18
2023-11-23T22:14:12.401Z,7.82
2023-11-23T22:16:14.187Z,8.07
2023-11-23T22:18:17.983Z,6.90
2023-11-23T22:20:20.924Z,7.75
2023-11-23T22:22:23.339Z,7.75
2023-11-23T22:24:26.065Z,8.20
2023-11-23T22:26:28.511Z,8.18
2023-11-23T22:28:31.095Z,7.65
2023-11-23T22:30:33.649Z,7.90
2023-11-23T22:32:38.098Z,7.18
2023-11-23T22:34:42.467Z,7.20
2023-11-23T22:36:45.260Z,6.22
2023-11-23T22:38:47.949Z,7.38
2023-11-23T22:40:50.351Z,7.35
2023-11-23T22:42:52.751Z,6.78
2023-11-23T22:44:55.053Z,7.13
2023-11-23T22:46:57.508Z,7.53
2023-11-23T22:48:59.378Z,7.15
2023-11-23T22:51:02.818Z,7.18
2023-11-23T22:53:04.551Z,6.90
2023-11-23T22:55:07.104Z,8.02
2023-11-23T22:57:08.828Z,7.80
2023-11-23T22:59:10.728Z,6.80
2023-11-23T23:01:12.609Z,7.75
2023-11-23T23:03:14.578Z,7.90
2023-11-23T23:05:16.454Z,7.32
2023-11-23T23:07:19.645Z,8.65
2023-11-23T23:09:22.498Z,7.50
2023-11-23T23:11:24.417Z,6.88
2023-11-23T23:13:26.159Z,7.70
2023-11-23T23:15:28.058Z,7.82
2023-11-23T23:17:29.848Z,7.60
2023-11-23T23:19:31.612Z,6.90
2023-11-23T23:21:33.401Z,7.68
2023-11-23T23:23:36.594Z,5.93
2023-11-23T23:25:38.360Z,6.93
2023-11-23T23:27:40.465Z,8.18
2023-11-23T23:29:42.228Z,7.53
2023-11-23T23:31:44.141Z,8.30
2023-11-23T23:33:45.945Z,7.40
2023-11-23T23:35:47.761Z,6.35
2023-11-23T23:37:49.616Z,7.38
2023-11-23T23:39:52.805Z,6.80
2023-11-23T23:41:54.614Z,6.68
2023-11-23T23:43:56.256Z,7.72
2023-11-23T23:46:00.356Z,7.72
2023-11-23T23:48:02.125Z,7.90
2023-11-23T23:50:04.420Z,6.63
2023-11-23T23:52:06.539Z,8.02
2023-11-23T23:54:08.217Z,6.63
2023-11-23T23:56:11.513Z,6.60
2023-11-23T23:58:13.247Z,7.25
